createdAt,value
2019-01-21T00:00:51.826Z,21.47
2019-01-21T00:03:19.725Z,18.87
2019-01-21T00:05:48.240Z,19.20
2019-01-21T00:08:16.122Z,18.93
2019-01-21T00:10:44.348Z,16.50
2019-01-21T00:13:12.138Z,15.80
2019-01-21T00:15:39.734Z,17.93
2019-01-21T00:18:08.156Z,17.90
2019-01-21T00:20:39.614Z,16.53
2019-01-21T00:23:07.526Z,17.27
2019-01-21T00:25:35.666Z,16.43
2019-01-21T00:28:03.551Z,17.47
2019-01-21T00:30:31.876Z,15.47
2019-01-21T00:32:59.367Z,16.17
2019-01-21T00:35:27.235Z,16.37
2019-01-21T00:37:55.061Z,16.40
2019-01-21T00:40:22.568Z,16.17
2019-01-21T00:42:50.402Z,17.17
2019-01-21T00:45:18.321Z,15.60
2019-01-21T00:47:46.871Z,15.20
2019-01-21T00:50:14.364Z,16.43
2019-01-21T00:52:42.247Z,16.20
2019-01-21T00:55:10.270Z,15.67
2019-01-21T00:57:38.485Z,14.87
2019-01-21T01:00:09.374Z,14.50
2019-01-21T01:02:36.875Z,16.10
2019-01-21T01:05:06.108Z,15.97
2019-01-21T01:07:35.125Z,14.93
2019-01-21T01:10:03.344Z,15.23
2019-01-21T01:12:31.356Z,15.87
2019-01-21T01:14:59.031Z,16.63
2019-01-21T01:17:26.495Z,15.23
2019-01-21T01:19:54.642Z,15.60
2019-01-21T01:22:22.483Z,16.63
2019-01-21T01:24:50.910Z,16.80
2019-01-21T01:27:18.750Z,16.23
2019-01-21T01:29:46.636Z,15.93
2019-01-21T01:32:14.502Z,14.97
2019-01-21T01:34:42.010Z,15.90
2019-01-21T01:37:10.198Z,15.73
2019-01-21T01:39:38.111Z,17.47
2019-01-21T01:42:05.681Z,17.43
2019-01-21T01:44:34.212Z,16.80
2019-01-21T01:47:02.535Z,16.83
2019-01-21T01:49:30.396Z,17.80
2019-01-21T01:51:58.956Z,16.57
2019-01-21T01:54:27.201Z,16.33
2019-01-21T01:56:56.781Z,16.60
2019-01-21T01:59:24.912Z,17.13
2019-01-21T02:01:53.150Z,18.50
2019-01-21T02:04:21.301Z,16.80
2019-01-21T02:06:49.597Z,18.27
2019-01-21T02:09:17.369Z,18.97
2019-01-21T02:11:45.215Z,17.47
2019-01-21T02:14:12.987Z,18.10
2019-01-21T02:16:40.535Z,18.30
2019-01-21T02:19:08.637Z,18.00
2019-01-21T02:21:37.718Z,17.50
2019-01-21T02:24:07.975Z,16.80
2019-01-21T02:27:08.389Z,18.83
2019-01-21T02:29:55.069Z,17.20
2019-01-21T02:33:00.373Z,16.70
2019-01-21T02:36:18.841Z,17.77
2019-01-21T02:39:44.422Z,16.90
2019-01-21T02:42:40.529Z,16.60
2019-01-21T02:46:05.407Z,17.10
2019-01-21T02:49:10.036Z,17.63
2019-01-21T02:52:18.910Z,17.07
2019-01-21T02:55:12.435Z,15.87
2019-01-21T02:58:27.262Z,17.60
2019-01-21T03:01:14.459Z,17.67
2019-01-21T03:04:11.302Z,17.90
2019-01-21T03:07:12.075Z,17.13
2019-01-21T03:10:23.515Z,15.60
2019-01-21T03:13:18.352Z,17.07
2019-01-21T03:16:23.253Z,18.67
2019-01-21T03:19:28.188Z,16.67
2019-01-21T03:22:34.017Z,18.40
2019-01-21T03:25:33.560Z,18.03
2019-01-21T03:28:56.167Z,17.43
2019-01-21T03:32:18.009Z,17.17
2019-01-21T03:35:40.005Z,17.60
2019-01-21T03:38:20.499Z,17.30
2019-01-21T03:40:54.784Z,18.43
2019-01-21T03:44:20.906Z,17.70
2019-01-21T03:47:06.888Z,17.00
2019-01-21T03:50:25.733Z,17.97
2019-01-21T03:53:38.324Z,18.63
2019-01-21T03:56:11.629Z,18.43
2019-01-21T03:58:58.041Z,17.07
2019-01-21T04:01:49.957Z,17.83
2019-01-21T04:04:43.220Z,18.77
2019-01-21T04:07:38.069Z,17.63
2019-01-21T04:10:51.052Z,19.20
2019-01-21T04:13:36.987Z,18.37
2019-01-21T04:16:37.454Z,18.07
2019-01-21T04:19:46.767Z,16.87
2019-01-21T04:23:05.395Z,17.97
2019-01-21T04:25:48.279Z,19.33
2019-01-21T04:28:57.938Z,19.30
2019-01-21T04:31:45.070Z,18.03
2019-01-21T04:35:12.426Z,18.83
2019-01-21T04:38:28.174Z,17.77
2019-01-21T04:41:12.686Z,18.73
2019-01-21T04:44:34.803Z,19.77
2019-01-21T04:47:40.046Z,19.47
2019-01-21T04:50:46.156Z,20.23
2019-01-21T04:53:57.377Z,17.13
2019-01-21T04:56:53.367Z,18.43
2019-01-21T05:00:12.147Z,19.13
2019-01-21T05:03:08.255Z,18.67
2019-01-21T05:06:03.168Z,20.10
2019-01-21T05:09:14.579Z,18.67
2019-01-21T05:12:15.055Z,18.67
2019-01-21T05:15:11.620Z,19.10
2019-01-21T05:18:20.566Z,18.67
2019-01-21T05:21:34.515Z,18.63
2019-01-21T05:24:35.789Z,18.77
2019-01-21T05:27:54.427Z,18.67
2019-01-21T05:31:01.319Z,19.30
2019-01-21T05:34:13.984Z,19.67
2019-01-21T05:37:17.735Z,20.87
2019-01-21T05:40:18.669Z,18.50
2019-01-21T05:43:35.568Z,19.67
2019-01-21T05:46:47.747Z,18.73
2019-01-21T05:49:52.101Z,20.07
2019-01-21T05:53:09.736Z,21.17
2019-01-21T05:56:31.772Z,22.10
2019-01-21T05:59:47.288Z,18.30
2019-01-21T06:02:43.429Z,17.93
2019-01-21T06:05:25.800Z,18.47
2019-01-21T06:08:31.017Z,20.47
2019-01-21T06:11:29.336Z,18.00
2019-01-21T06:14:37.975Z,19.07
2019-01-21T06:17:21.027Z,20.20
2019-01-21T06:20:41.377Z,18.17
2019-01-21T06:24:06.154Z,18.83
2019-01-21T06:27:14.039Z,18.67
2019-01-21T06:30:14.811Z,19.77
2019-01-21T06:33:17.707Z,18.43
2019-01-21T06:36:33.581Z,19.80
2019-01-21T06:39:38.007Z,19.33
2019-01-21T06:42:54.555Z,20.67
2019-01-21T06:46:05.979Z,19.03
2019-01-21T06:49:15.701Z,17.93
2019-01-21T06:52:14.845Z,19.40
2019-01-21T06:55:38.167Z,20.47
2019-01-21T06:58:44.891Z,19.27
2019-01-21T07:01:41.157Z,20.73
2019-01-21T07:04:55.080Z,19.87
2019-01-21T07:07:55.443Z,20.83
2019-01-21T07:10:54.981Z,19.63
2019-01-21T07:14:03.493Z,20.90
2019-01-21T07:17:19.191Z,19.67
2019-01-21T07:20:47.292Z,18.80
2019-01-21T07:23:49.086Z,20.10
2019-01-21T07:27:14.208Z,20.97
2019-01-21T07:30:13.142Z,19.60
2019-01-21T07:33:18.750Z,19.70
2019-01-21T07:36:15.325Z,19.07
2019-01-21T07:39:24.460Z,20.60
2019-01-21T07:42:07.236Z,20.37
2019-01-21T07:45:24.514Z,20.97
2019-01-21T07:48:30.340Z,21.03
2019-01-21T07:51:27.425Z,21.77
2019-01-21T07:54:23.235Z,22.40
2019-01-21T07:57:45.180Z,22.60
2019-01-21T08:00:55.573Z,22.40
2019-01-21T08:03:56.082Z,19.63
2019-01-21T08:06:40.554Z,22.17
2019-01-21T08:09:40.067Z,20.17
2019-01-21T08:12:45.570Z,20.93
2019-01-21T08:15:41.802Z,20.63
2019-01-21T08:18:50.247Z,21.93
2019-01-21T08:21:38.877Z,21.43
2019-01-21T08:24:36.550Z,20.97
2019-01-21T08:27:38.129Z,21.37
2019-01-21T08:30:35.296Z,22.03
2019-01-21T08:33:44.335Z,20.90
2019-01-21T08:36:59.920Z,22.47
2019-01-21T08:40:09.071Z,22.00
2019-01-21T08:43:19.533Z,20.17
2019-01-21T08:46:28.666Z,22.73
2019-01-21T08:49:12.041Z,22.53
2019-01-21T08:52:24.246Z,23.40
2019-01-21T08:55:43.396Z,21.57
2019-01-21T08:58:48.862Z,23.30
2019-01-21T09:02:10.017Z,22.73
2019-01-21T09:05:04.422Z,24.00
2019-01-21T09:07:52.393Z,21.70
2019-01-21T09:10:45.185Z,21.30
2019-01-21T09:13:42.194Z,21.87
2019-01-21T09:16:47.723Z,22.07
2019-01-21T09:20:15.067Z,21.50
2019-01-21T09:23:14.593Z,22.03
2019-01-21T09:25:55.839Z,20.57
2019-01-21T09:28:37.592Z,20.43
2019-01-21T09:31:42.310Z,21.93
2019-01-21T09:34:47.404Z,22.77
2019-01-21T09:37:29.965Z,21.70
2019-01-21T09:40:36.864Z,23.27
2019-01-21T09:43:20.292Z,22.17
2019-01-21T09:46:20.570Z,22.27
2019-01-21T09:48:47.042Z,21.70
2019-01-21T09:51:15.274Z,25.50
2019-01-21T09:53:45.724Z,23.83
2019-01-21T09:56:13.555Z,20.80
2019-01-21T09:58:43.464Z,21.23
2019-01-21T10:01:11.162Z,21.33
2019-01-21T10:03:39.011Z,22.73
2019-01-21T10:06:07.999Z,20.80
2019-01-21T10:08:59.807Z,20.47
2019-01-21T10:12:01.731Z,22.00
2019-01-21T10:15:14.198Z,21.53
2019-01-21T10:18:40.176Z,21.00
2019-01-21T10:21:31.625Z,21.73
2019-01-21T10:24:33.992Z,19.37
2019-01-21T10:27:40.107Z,19.50
2019-01-21T10:30:33.984Z,18.07
2019-01-21T10:33:51.620Z,17.03
2019-01-21T10:36:56.406Z,19.17
2019-01-21T10:40:09.555Z,18.43
2019-01-21T10:43:34.377Z,18.57
2019-01-21T10:46:35.519Z,16.47
2019-01-21T10:49:57.460Z,17.60
2019-01-21T10:53:08.672Z,17.70
2019-01-21T10:56:19.730Z,18.90
2019-01-21T10:59:35.876Z,17.90
2019-01-21T11:02:41.159Z,17.27
2019-01-21T11:05:38.330Z,15.43
2019-01-21T11:08:48.480Z,16.63
2019-01-21T11:11:54.043Z,17.93
2019-01-21T11:14:47.002Z,15.93
2019-01-21T11:17:42.377Z,15.83
2019-01-21T11:20:44.754Z,18.33
2019-01-21T11:23:50.637Z,19.17
2019-01-21T11:26:41.549Z,17.80
2019-01-21T11:29:19.312Z,15.93
2019-01-21T11:32:20.864Z,17.43
2019-01-21T11:35:19.403Z,17.37
2019-01-21T11:38:30.840Z,16.67
2019-01-21T11:41:36.790Z,16.23
2019-01-21T11:44:34.427Z,15.97
2019-01-21T11:47:17.974Z,16.40
2019-01-21T11:50:23.744Z,15.57
2019-01-21T11:53:39.509Z,17.43
2019-01-21T11:56:26.371Z,15.50
2019-01-21T11:59:12.761Z,15.87
2019-01-21T12:02:23.549Z,15.63
2019-01-21T12:05:16.672Z,16.17
2019-01-21T12:08:22.090Z,16.50
2019-01-21T12:11:49.444Z,16.33
2019-01-21T12:14:55.793Z,16.17
2019-01-21T12:18:01.033Z,16.13
2019-01-21T12:21:31.579Z,15.60
2019-01-21T12:24:40.099Z,16.13
2019-01-21T12:27:20.362Z,16.70
2019-01-21T12:30:36.527Z,15.37
2019-01-21T12:33:36.459Z,13.13
2019-01-21T12:36:33.486Z,15.97
2019-01-21T12:39:39.642Z,14.83
2019-01-21T12:42:22.956Z,16.33
2019-01-21T12:45:20.037Z,17.43
2019-01-21T12:48:31.630Z,16.37
2019-01-21T12:51:33.138Z,16.43
2019-01-21T12:54:40.636Z,16.40
2019-01-21T12:58:11.443Z,14.93
2019-01-21T13:01:10.019Z,15.75
2019-01-21T13:04:08.605Z,15.37
2019-01-21T13:07:18.660Z,15.95
2019-01-21T13:10:38.522Z,16.33
2019-01-21T13:13:58.427Z,15.60
2019-01-21T13:16:49.899Z,14.93
2019-01-21T13:20:11.467Z,15.90
2019-01-21T13:23:35.360Z,15.70
2019-01-21T13:26:37.530Z,16.27
2019-01-21T13:29:48.798Z,15.90
2019-01-21T13:32:59.531Z,15.73
2019-01-21T13:36:09.586Z,15.97
2019-01-21T13:39:30.278Z,14.57
2019-01-21T13:42:18.823Z,15.53
2019-01-21T13:45:36.473Z,16.30
2019-01-21T13:48:32.476Z,16.97
2019-01-21T13:51:23.808Z,15.97
2019-01-21T13:54:34.982Z,17.10
2019-01-21T13:58:05.847Z,15.77
2019-01-21T14:01:22.675Z,16.77
2019-01-21T14:04:32.537Z,16.57
2019-01-21T14:07:28.233Z,15.63
2019-01-21T14:10:38.052Z,15.50
2019-01-21T14:13:48.893Z,16.40
2019-01-21T14:16:33.284Z,16.57
2019-01-21T14:19:37.468Z,15.93
2019-01-21T14:22:42.021Z,15.10
2019-01-21T14:26:04.824Z,15.93
2019-01-21T14:29:04.522Z,14.50
2019-01-21T14:32:15.585Z,15.60
2019-01-21T14:35:22.179Z,15.17
2019-01-21T14:38:10.613Z,15.97
2019-01-21T14:41:24.036Z,15.37
2019-01-21T14:44:39.617Z,16.67
2019-01-21T14:47:30.091Z,15.70
2019-01-21T14:50:36.289Z,18.00
2019-01-21T14:53:39.958Z,16.13
2019-01-21T14:56:18.251Z,16.07
2019-01-21T14:59:06.271Z,16.17
2019-01-21T15:02:12.944Z,16.27
2019-01-21T15:05:16.016Z,15.77
2019-01-21T15:07:57.611Z,16.80
2019-01-21T15:11:05.279Z,15.77
2019-01-21T15:14:12.345Z,17.00
2019-01-21T15:17:41.036Z,16.77
2019-01-21T15:20:36.165Z,15.57
2019-01-21T15:23:34.576Z,16.10
2019-01-21T15:26:43.094Z,15.27
2019-01-21T15:30:07.363Z,15.40
2019-01-21T15:33:24.386Z,16.27
2019-01-21T15:36:32.235Z,15.53
2019-01-21T15:39:35.380Z,17.20
2019-01-21T15:42:29.239Z,17.50
2019-01-21T15:45:34.251Z,15.90
2019-01-21T15:48:31.392Z,17.20
2019-01-21T15:51:53.692Z,18.10
2019-01-21T15:55:05.807Z,17.40
2019-01-21T15:58:19.317Z,17.97
2019-01-21T16:01:44.361Z,18.13
2019-01-21T16:04:59.894Z,18.00
2019-01-21T16:07:44.223Z,18.63
2019-01-21T16:10:42.093Z,18.13
2019-01-21T16:13:39.128Z,19.37
2019-01-21T16:16:51.278Z,19.40
2019-01-21T16:19:42.811Z,20.33
2019-01-21T16:22:47.126Z,18.13
2019-01-21T16:25:52.783Z,18.97
2019-01-21T16:28:47.927Z,19.13
2019-01-21T16:31:29.563Z,18.53
2019-01-21T16:34:30.153Z,19.87
2019-01-21T16:37:35.130Z,18.53
2019-01-21T16:40:50.593Z,18.17
2019-01-21T16:43:18.067Z,18.40
2019-01-21T16:45:46.304Z,19.23
2019-01-21T16:48:13.808Z,19.13
2019-01-21T16:50:42.091Z,18.70
2019-01-21T16:53:09.683Z,19.20
2019-01-21T16:55:37.731Z,18.87
2019-01-21T16:58:05.221Z,20.27
2019-01-21T17:00:33.444Z,22.27
2019-01-21T17:03:01.721Z,26.90
2019-01-21T17:05:29.912Z,26.73
2019-01-21T17:07:58.358Z,25.97
2019-01-21T17:10:27.117Z,24.33
2019-01-21T17:12:54.953Z,26.83
2019-01-21T17:15:22.806Z,26.07
2019-01-21T17:17:50.881Z,25.83
2019-01-21T17:20:20.045Z,27.63
2019-01-21T17:22:47.538Z,26.90
2019-01-21T17:25:16.960Z,25.77
2019-01-21T17:27:44.920Z,25.83
2019-01-21T17:30:14.305Z,25.57
2019-01-21T17:32:41.837Z,27.37
2019-01-21T17:35:10.198Z,25.73
2019-01-21T17:37:41.974Z,25.73
2019-01-21T17:40:11.464Z,30.37
2019-01-21T17:42:39.945Z,27.57
2019-01-21T17:45:11.379Z,25.33
2019-01-21T17:47:39.140Z,25.33
2019-01-21T17:50:08.818Z,25.93
2019-01-21T17:52:36.646Z,24.80
2019-01-21T17:55:04.653Z,26.23
2019-01-21T17:57:32.890Z,27.50
2019-01-21T18:00:00.758Z,30.97
2019-01-21T18:02:28.760Z,28.23
2019-01-21T18:07:21.445Z,28.27
2019-01-21T18:09:49.215Z,26.27
2019-01-21T18:12:16.688Z,26.47
2019-01-21T18:14:44.210Z,26.73
2019-01-21T18:17:12.034Z,29.63
2019-01-21T18:19:39.870Z,26.57
2019-01-21T18:22:07.390Z,27.30
2019-01-21T18:24:35.485Z,25.57
2019-01-21T18:27:03.372Z,33.03
2019-01-21T18:29:31.537Z,32.00
2019-01-21T18:31:59.296Z,32.03
2019-01-21T18:34:27.492Z,32.50
2019-01-21T18:36:55.295Z,31.03
2019-01-21T18:39:23.294Z,30.67
2019-01-21T18:41:50.879Z,28.97
2019-01-21T18:44:19.101Z,33.10
2019-01-21T18:46:46.842Z,31.63
2019-01-21T18:49:15.931Z,32.13
2019-01-21T18:51:46.822Z,30.07
2019-01-21T18:54:12.733Z,31.73
2019-01-21T18:56:40.207Z,31.00
2019-01-21T18:59:07.772Z,31.07
2019-01-21T19:01:35.252Z,33.23
2019-01-21T19:04:02.789Z,31.17
2019-01-21T19:06:30.861Z,29.87
2019-01-21T19:08:59.437Z,30.50
2019-01-21T19:11:28.729Z,29.70
2019-01-21T19:13:56.282Z,28.50
2019-01-21T19:16:23.780Z,26.67
2019-01-21T19:18:51.365Z,26.53
2019-01-21T19:21:19.720Z,25.13
2019-01-21T19:23:47.938Z,24.43
2019-01-21T19:26:16.161Z,25.17
2019-01-21T19:28:43.994Z,25.67
2019-01-21T19:31:12.534Z,26.07
2019-01-21T19:33:40.015Z,25.40
2019-01-21T19:36:08.047Z,25.13
2019-01-21T19:38:56.575Z,24.83
2019-01-21T19:41:24.107Z,24.13
2019-01-21T19:43:52.918Z,24.00
2019-01-21T19:46:20.959Z,24.47
2019-01-21T19:48:49.356Z,25.33
2019-01-21T19:51:17.460Z,26.80
2019-01-21T19:53:45.588Z,26.97
2019-01-21T19:56:13.487Z,26.37
2019-01-21T19:58:41.592Z,26.60
2019-01-21T20:01:09.616Z,23.67
2019-01-21T20:03:37.384Z,26.27
2019-01-21T20:06:05.320Z,27.07
2019-01-21T20:08:32.762Z,24.60
2019-01-21T20:11:00.793Z,28.17
2019-01-21T20:13:28.775Z,30.00
2019-01-21T20:15:56.335Z,33.73
2019-01-21T20:18:24.182Z,33.60
2019-01-21T20:20:52.600Z,33.27
2019-01-21T20:23:20.568Z,31.43
2019-01-21T20:25:48.043Z,30.70
2019-01-21T20:28:16.868Z,31.90
2019-01-21T20:30:44.426Z,29.63
2019-01-21T20:33:11.888Z,28.83
2019-01-21T20:35:39.513Z,32.43
2019-01-21T20:38:07.748Z,31.93
2019-01-21T20:40:35.754Z,32.03
2019-01-21T20:43:03.617Z,33.47
2019-01-21T20:45:31.430Z,31.97
2019-01-21T20:47:59.059Z,30.97
2019-01-21T20:50:28.450Z,29.53
2019-01-21T20:52:56.877Z,29.67
2019-01-21T20:55:24.631Z,28.50
2019-01-21T20:57:52.148Z,22.57
2019-01-21T21:00:22.084Z,24.10
2019-01-21T21:02:50.288Z,30.87
2019-01-21T21:05:17.863Z,30.57
2019-01-21T21:07:45.920Z,30.47
2019-01-21T21:10:13.593Z,29.30
2019-01-21T21:12:41.578Z,30.23
2019-01-21T21:15:15.698Z,29.17
2019-01-21T21:17:44.046Z,30.67
2019-01-21T21:20:12.152Z,30.37
2019-01-21T21:22:40.095Z,29.97
2019-01-21T21:25:09.410Z,29.47
2019-01-21T21:27:37.529Z,30.63
2019-01-21T21:30:08.687Z,31.00
2019-01-21T21:32:36.197Z,30.17
2019-01-21T21:35:04.077Z,27.67
2019-01-21T21:37:31.640Z,26.63
2019-01-21T21:40:00.215Z,28.10
2019-01-21T21:42:28.108Z,28.00
2019-01-21T21:44:56.039Z,26.40
2019-01-21T21:47:24.190Z,26.40
2019-01-21T21:49:51.982Z,29.07
2019-01-21T21:52:27.860Z,27.13
2019-01-21T21:54:56.274Z,25.33
2019-01-21T21:57:24.214Z,24.57
2019-01-21T21:59:52.114Z,25.43
2019-01-21T22:02:19.659Z,26.33
2019-01-21T22:04:47.524Z,25.83
2019-01-21T22:07:16.238Z,28.30
2019-01-21T22:09:44.182Z,26.97
2019-01-21T22:12:11.879Z,25.37
2019-01-21T22:14:39.428Z,25.83
2019-01-21T22:17:07.103Z,26.70
2019-01-21T22:19:35.600Z,24.33
2019-01-21T22:22:03.086Z,26.50
2019-01-21T22:24:31.262Z,28.03
2019-01-21T22:26:58.843Z,27.67
2019-01-21T22:29:27.079Z,30.10
2019-01-21T22:31:54.623Z,31.43
2019-01-21T22:34:22.881Z,32.07
2019-01-21T22:36:51.069Z,31.40
2019-01-21T22:39:18.870Z,31.33
2019-01-21T22:41:46.450Z,30.47
2019-01-21T22:44:20.347Z,29.00
2019-01-21T22:46:53.159Z,29.93
2019-01-21T22:49:21.206Z,31.93
2019-01-21T22:51:48.875Z,34.10
2019-01-21T22:54:16.725Z,34.13
2019-01-21T22:56:44.267Z,36.87
2019-01-21T22:59:12.957Z,34.07
2019-01-21T23:01:41.305Z,32.07
2019-01-21T23:04:09.021Z,34.23
2019-01-21T23:06:36.535Z,35.83
2019-01-21T23:09:07.440Z,33.23
2019-01-21T23:11:35.162Z,29.03
2019-01-21T23:14:03.529Z,25.83
2019-01-21T23:16:31.169Z,25.40
2019-01-21T23:19:00.886Z,26.17
2019-01-21T23:21:28.804Z,27.43
2019-01-21T23:23:56.352Z,28.33
2019-01-21T23:26:24.426Z,26.83
2019-01-21T23:28:52.255Z,26.53
2019-01-21T23:31:20.120Z,27.03
2019-01-21T23:33:47.643Z,27.93
2019-01-21T23:36:15.143Z,25.90
2019-01-21T23:38:43.071Z,27.67
2019-01-21T23:41:11.027Z,29.83
2019-01-21T23:43:39.090Z,28.30
2019-01-21T23:46:06.676Z,30.17
2019-01-21T23:48:35.046Z,30.63
2019-01-21T23:51:02.676Z,29.83
2019-01-21T23:53:31.121Z,30.00
2019-01-21T23:55:58.953Z,31.13
2019-01-21T23:58:26.418Z,30.40
